sensor_id;sensor_type;location;lat;lon;timestamp;P1;durP1;ratioP1;P2;durP2;ratioP2
40489;SDS011;26196;52.302;10.572;2024-02-26T00:01:19;1.90;;;1.63;;
40489;SDS011;26196;52.302;10.572;2024-02-26T00:05:20;2.40;;;1.42;;
40489;SDS011;26196;52.302;10.572;2024-02-26T00:09:22;2.30;;;1.70;;
40489;SDS011;26196;52.302;10.572;2024-02-26T00:13:23;2.28;;;1.58;;
40489;SDS011;26196;52.302;10.572;2024-02-26T00:17:25;2.47;;;1.40;;
40489;SDS011;26196;52.302;10.572;2024-02-26T00:21:27;4.20;;;1.85;;
40489;SDS011;26196;52.302;10.572;2024-02-26T00:25:29;2.33;;;1.20;;
40489;SDS011;26196;52.302;10.572;2024-02-26T00:29:30;1.58;;;1.13;;
40489;SDS011;26196;52.302;10.572;2024-02-26T00:33:33;3.20;;;1.30;;
40489;SDS011;26196;52.302;10.572;2024-02-26T00:37:35;2.33;;;1.27;;
40489;SDS011;26196;52.302;10.572;2024-02-26T00:41:40;2.03;;;1.42;;
40489;SDS011;26196;52.302;10.572;2024-02-26T00:45:42;1.88;;;1.35;;
40489;SDS011;26196;52.302;10.572;2024-02-26T00:49:44;1.27;;;1.00;;
40489;SDS011;26196;52.302;10.572;2024-02-26T00:53:45;1.70;;;1.15;;
40489;SDS011;26196;52.302;10.572;2024-02-26T00:57:47;2.33;;;0.98;;
40489;SDS011;26196;52.302;10.572;2024-02-26T01:01:49;2.15;;;1.60;;
40489;SDS011;26196;52.302;10.572;2024-02-26T01:05:51;2.35;;;1.10;;
40489;SDS011;26196;52.302;10.572;2024-02-26T01:09:56;2.10;;;1.10;;
40489;SDS011;26196;52.302;10.572;2024-02-26T01:13:58;2.10;;;1.38;;
40489;SDS011;26196;52.302;10.572;2024-02-26T01:17:59;2.55;;;1.17;;
40489;SDS011;26196;52.302;10.572;2024-02-26T01:22:02;2.22;;;1.35;;
40489;SDS011;26196;52.302;10.572;2024-02-26T01:26:03;2.17;;;1.20;;
40489;SDS011;26196;52.302;10.572;2024-02-26T01:30:06;1.55;;;1.30;;
40489;SDS011;26196;52.302;10.572;2024-02-26T01:34:08;1.88;;;0.82;;
40489;SDS011;26196;52.302;10.572;2024-02-26T01:38:10;1.80;;;0.95;;
40489;SDS011;26196;52.302;10.572;2024-02-26T01:42:11;2.55;;;1.10;;
40489;SDS011;26196;52.302;10.572;2024-02-26T01:46:14;2.30;;;1.27;;
40489;SDS011;26196;52.302;10.572;2024-02-26T01:50:16;2.08;;;1.15;;
40489;SDS011;26196;52.302;10.572;2024-02-26T01:54:18;4.00;;;1.23;;
40489;SDS011;26196;52.302;10.572;2024-02-26T01:58:20;1.95;;;1.05;;
40489;SDS011;26196;52.302;10.572;2024-02-26T02:02:21;1.02;;;0.73;;
40489;SDS011;26196;52.302;10.572;2024-02-26T02:06:23;1.75;;;1.00;;
40489;SDS011;26196;52.302;10.572;2024-02-26T02:10:26;2.15;;;1.05;;
40489;SDS011;26196;52.302;10.572;2024-02-26T02:14:28;1.45;;;0.90;;
40489;SDS011;26196;52.302;10.572;2024-02-26T02:18:29;1.45;;;0.82;;
40489;SDS011;26196;52.302;10.572;2024-02-26T02:22:31;1.58;;;1.00;;
40489;SDS011;26196;52.302;10.572;2024-02-26T02:26:33;1.75;;;1.00;;
40489;SDS011;26196;52.302;10.572;2024-02-26T02:30:35;1.20;;;0.80;;
40489;SDS011;26196;52.302;10.572;2024-02-26T02:34:37;1.85;;;1.13;;
40489;SDS011;26196;52.302;10.572;2024-02-26T02:38:48;1.63;;;0.95;;
40489;SDS011;26196;52.302;10.572;2024-02-26T02:42:51;1.75;;;0.90;;
40489;SDS011;26196;52.302;10.572;2024-02-26T02:46:53;1.02;;;0.85;;
40489;SDS011;26196;52.302;10.572;2024-02-26T02:50:54;3.20;;;1.08;;
40489;SDS011;26196;52.302;10.572;2024-02-26T02:54:56;1.23;;;0.65;;
40489;SDS011;26196;52.302;10.572;2024-02-26T02:58:59;1.95;;;1.05;;
40489;SDS011;26196;52.302;10.572;2024-02-26T03:03:01;1.13;;;0.90;;
40489;SDS011;26196;52.302;10.572;2024-02-26T03:07:02;1.95;;;1.42;;
40489;SDS011;26196;52.302;10.572;2024-02-26T03:11:04;0.73;;;0.57;;
40489;SDS011;26196;52.302;10.572;2024-02-26T03:15:07;1.73;;;0.73;;
40489;SDS011;26196;52.302;10.572;2024-02-26T03:19:08;1.63;;;0.63;;
40489;SDS011;26196;52.302;10.572;2024-02-26T03:23:10;1.42;;;0.80;;
40489;SDS011;26196;52.302;10.572;2024-02-26T03:27:14;1.35;;;0.88;;
40489;SDS011;26196;52.302;10.572;2024-02-26T03:31:16;0.50;;;0.50;;
40489;SDS011;26196;52.302;10.572;2024-02-26T03:35:17;2.50;;;0.65;;
40489;SDS011;26196;52.302;10.572;2024-02-26T03:39:19;2.50;;;0.75;;
40489;SDS011;26196;52.302;10.572;2024-02-26T03:43:21;1.55;;;1.17;;
40489;SDS011;26196;52.302;10.572;2024-02-26T03:47:22;1.05;;;0.70;;
40489;SDS011;26196;52.302;10.572;2024-02-26T03:51:24;1.45;;;0.80;;
40489;SDS011;26196;52.302;10.572;2024-02-26T03:55:25;1.23;;;0.60;;
40489;SDS011;26196;52.302;10.572;2024-02-26T03:59:27;2.85;;;0.82;;
40489;SDS011;26196;52.302;10.572;2024-02-26T04:03:28;2.60;;;1.88;;
40489;SDS011;26196;52.302;10.572;2024-02-26T04:07:30;2.05;;;0.70;;
40489;SDS011;26196;52.302;10.572;2024-02-26T04:11:32;1.10;;;0.70;;
40489;SDS011;26196;52.302;10.572;2024-02-26T04:15:34;1.65;;;0.70;;
40489;SDS011;26196;52.302;10.572;2024-02-26T04:19:35;1.40;;;0.80;;
40489;SDS011;26196;52.302;10.572;2024-02-26T04:23:37;2.67;;;0.70;;
40489;SDS011;26196;52.302;10.572;2024-02-26T04:27:39;0.70;;;0.70;;
40489;SDS011;26196;52.302;10.572;2024-02-26T04:31:40;2.97;;;0.95;;
40489;SDS011;26196;52.302;10.572;2024-02-26T04:35:43;2.58;;;1.00;;
40489;SDS011;26196;52.302;10.572;2024-02-26T04:39:45;1.88;;;1.17;;
40489;SDS011;26196;52.302;10.572;2024-02-26T04:43:51;1.50;;;0.88;;
40489;SDS011;26196;52.302;10.572;2024-02-26T04:47:52;3.10;;;1.00;;
40489;SDS011;26196;52.302;10.572;2024-02-26T04:51:54;5.47;;;1.55;;
40489;SDS011;26196;52.302;10.572;2024-02-26T04:55:56;4.95;;;1.23;;
40489;SDS011;26196;52.302;10.572;2024-02-26T04:59:57;3.38;;;1.85;;
40489;SDS011;26196;52.302;10.572;2024-02-26T05:03:59;4.07;;;1.40;;
40489;SDS011;26196;52.302;10.572;2024-02-26T05:08:01;6.72;;;2.30;;
40489;SDS011;26196;52.302;10.572;2024-02-26T05:12:04;4.82;;;2.05;;
40489;SDS011;26196;52.302;10.572;2024-02-26T05:16:06;7.35;;;2.28;;
40489;SDS011;26196;52.302;10.572;2024-02-26T05:20:08;9.38;;;2.38;;
40489;SDS011;26196;52.302;10.572;2024-02-26T05:24:10;6.03;;;2.40;;
40489;SDS011;26196;52.302;10.572;2024-02-26T05:28:11;3.63;;;1.88;;
40489;SDS011;26196;52.302;10.572;2024-02-26T05:32:13;5.90;;;1.95;;
40489;SDS011;26196;52.302;10.572;2024-02-26T05:36:18;5.80;;;2.00;;
40489;SDS011;26196;52.302;10.572;2024-02-26T05:40:23;9.88;;;2.15;;
40489;SDS011;26196;52.302;10.572;2024-02-26T05:44:26;6.85;;;2.38;;
40489;SDS011;26196;52.302;10.572;2024-02-26T05:48:28;7.05;;;2.60;;
40489;SDS011;26196;52.302;10.572;2024-02-26T05:52:30;7.90;;;2.92;;
40489;SDS011;26196;52.302;10.572;2024-02-26T05:56:32;9.25;;;2.75;;
40489;SDS011;26196;52.302;10.572;2024-02-26T06:00:34;6.30;;;1.83;;
40489;SDS011;26196;52.302;10.572;2024-02-26T06:04:36;7.05;;;2.25;;
40489;SDS011;26196;52.302;10.572;2024-02-26T06:08:38;7.03;;;2.20;;
40489;SDS011;26196;52.302;10.572;2024-02-26T06:12:39;5.15;;;2.25;;
40489;SDS011;26196;52.302;10.572;2024-02-26T06:16:41;7.03;;;2.15;;
40489;SDS011;26196;52.302;10.572;2024-02-26T06:20:42;5.38;;;1.90;;
40489;SDS011;26196;52.302;10.572;2024-02-26T06:24:44;2.95;;;1.27;;
40489;SDS011;26196;52.302;10.572;2024-02-26T06:28:46;3.38;;;1.58;;
40489;SDS011;26196;52.302;10.572;2024-02-26T06:32:47;5.63;;;1.45;;
40489;SDS011;26196;52.302;10.572;2024-02-26T06:36:49;5.45;;;1.65;;
40489;SDS011;26196;52.302;10.572;2024-02-26T06:40:51;2.85;;;1.50;;
40489;SDS011;26196;52.302;10.572;2024-02-26T06:44:52;4.10;;;1.85;;
40489;SDS011;26196;52.302;10.572;2024-02-26T06:48:54;1.88;;;1.55;;
40489;SDS011;26196;52.302;10.572;2024-02-26T06:52:56;1.50;;;1.02;;
40489;SDS011;26196;52.302;10.572;2024-02-26T06:56:58;3.00;;;1.45;;
40489;SDS011;26196;52.302;10.572;2024-02-26T07:00:59;2.25;;;1.40;;
40489;SDS011;26196;52.302;10.572;2024-02-26T07:05:01;2.40;;;1.25;;
40489;SDS011;26196;52.302;10.572;2024-02-26T07:09:04;2.85;;;2.22;;
40489;SDS011;26196;52.302;10.572;2024-02-26T07:13:06;2.33;;;1.63;;
40489;SDS011;26196;52.302;10.572;2024-02-26T07:17:07;1.20;;;1.00;;
40489;SDS011;26196;52.302;10.572;2024-02-26T07:21:09;2.45;;;1.42;;
40489;SDS011;26196;52.302;10.572;2024-02-26T07:25:12;3.63;;;1.75;;
40489;SDS011;26196;52.302;10.572;2024-02-26T07:29:15;2.28;;;1.90;;
40489;SDS011;26196;52.302;10.572;2024-02-26T07:33:16;3.08;;;1.42;;
40489;SDS011;26196;52.302;10.572;2024-02-26T07:37:18;3.13;;;1.52;;
40489;SDS011;26196;52.302;10.572;2024-02-26T07:41:20;1.83;;;1.35;;
40489;SDS011;26196;52.302;10.572;2024-02-26T07:45:22;3.55;;;1.67;;
40489;SDS011;26196;52.302;10.572;2024-02-26T07:49:24;2.80;;;1.50;;
40489;SDS011;26196;52.302;10.572;2024-02-26T07:53:26;2.67;;;1.30;;
40489;SDS011;26196;52.302;10.572;2024-02-26T07:57:27;2.13;;;1.20;;
40489;SDS011;26196;52.302;10.572;2024-02-26T08:01:29;6.93;;;2.08;;
40489;SDS011;26196;52.302;10.572;2024-02-26T08:05:31;2.30;;;2.10;;
40489;SDS011;26196;52.302;10.572;2024-02-26T08:09:32;1.85;;;1.15;;
40489;SDS011;26196;52.302;10.572;2024-02-26T08:13:35;2.38;;;1.30;;
40489;SDS011;26196;52.302;10.572;2024-02-26T08:17:37;2.63;;;1.33;;
40489;SDS011;26196;52.302;10.572;2024-02-26T08:21:38;2.15;;;1.20;;
40489;SDS011;26196;52.302;10.572;2024-02-26T08:25:40;3.65;;;1.42;;
40489;SDS011;26196;52.302;10.572;2024-02-26T08:29:42;1.77;;;1.30;;
40489;SDS011;26196;52.302;10.572;2024-02-26T08:33:43;2.75;;;1.25;;
40489;SDS011;26196;52.302;10.572;2024-02-26T08:37:45;2.00;;;1.50;;
40489;SDS011;26196;52.302;10.572;2024-02-26T08:41:48;1.70;;;1.17;;
40489;SDS011;26196;52.302;10.572;2024-02-26T08:45:49;2.70;;;1.42;;
40489;SDS011;26196;52.302;10.572;2024-02-26T08:49:51;3.97;;;1.50;;
40489;SDS011;26196;52.302;10.572;2024-02-26T08:53:52;2.97;;;1.48;;
40489;SDS011;26196;52.302;10.572;2024-02-26T08:57:55;2.22;;;1.30;;
40489;SDS011;26196;52.302;10.572;2024-02-26T09:01:57;2.55;;;1.17;;
40489;SDS011;26196;52.302;10.572;2024-02-26T09:05:58;2.97;;;1.30;;
40489;SDS011;26196;52.302;10.572;2024-02-26T09:10:00;1.73;;;1.00;;
40489;SDS011;26196;52.302;10.572;2024-02-26T09:14:02;1.70;;;1.30;;
40489;SDS011;26196;52.302;10.572;2024-02-26T09:18:04;3.38;;;1.40;;
40489;SDS011;26196;52.302;10.572;2024-02-26T09:22:06;4.43;;;1.20;;
40489;SDS011;26196;52.302;10.572;2024-02-26T09:26:08;2.03;;;1.00;;
40489;SDS011;26196;52.302;10.572;2024-02-26T09:30:10;3.90;;;1.20;;
40489;SDS011;26196;52.302;10.572;2024-02-26T09:34:13;1.95;;;1.25;;
40489;SDS011;26196;52.302;10.572;2024-02-26T09:38:15;1.20;;;0.80;;
40489;SDS011;26196;52.302;10.572;2024-02-26T09:42:17;2.25;;;1.17;;
40489;SDS011;26196;52.302;10.572;2024-02-26T09:46:20;3.17;;;1.10;;
40489;SDS011;26196;52.302;10.572;2024-02-26T09:50:22;2.33;;;1.00;;
40489;SDS011;26196;52.302;10.572;2024-02-26T09:54:24;1.40;;;1.00;;
40489;SDS011;26196;52.302;10.572;2024-02-26T09:58:30;2.03;;;1.52;;
40489;SDS011;26196;52.302;10.572;2024-02-26T10:02:32;2.63;;;1.00;;
40489;SDS011;26196;52.302;10.572;2024-02-26T10:06:34;1.75;;;1.00;;
40489;SDS011;26196;52.302;10.572;2024-02-26T10:10:39;2.50;;;1.20;;
40489;SDS011;26196;52.302;10.572;2024-02-26T10:14:40;2.15;;;0.93;;
40489;SDS011;26196;52.302;10.572;2024-02-26T10:18:45;1.13;;;0.80;;
40489;SDS011;26196;52.302;10.572;2024-02-26T10:22:53;1.67;;;0.95;;
40489;SDS011;26196;52.302;10.572;2024-02-26T10:26:55;1.50;;;0.80;;
40489;SDS011;26196;52.302;10.572;2024-02-26T10:30:57;1.52;;;1.10;;
40489;SDS011;26196;52.302;10.572;2024-02-26T10:34:59;2.20;;;1.00;;
40489;SDS011;26196;52.302;10.572;2024-02-26T10:39:01;2.67;;;0.75;;
40489;SDS011;26196;52.302;10.572;2024-02-26T10:43:06;1.20;;;0.90;;
40489;SDS011;26196;52.302;10.572;2024-02-26T10:47:08;1.83;;;0.95;;
40489;SDS011;26196;52.302;10.572;2024-02-26T10:51:10;1.70;;;1.25;;
40489;SDS011;26196;52.302;10.572;2024-02-26T10:55:15;1.55;;;0.93;;
40489;SDS011;26196;52.302;10.572;2024-02-26T10:59:21;1.40;;;0.82;;
40489;SDS011;26196;52.302;10.572;2024-02-26T11:03:24;1.95;;;1.20;;
40489;SDS011;26196;52.302;10.572;2024-02-26T11:07:26;1.48;;;1.10;;
40489;SDS011;26196;52.302;10.572;2024-02-26T11:11:30;2.75;;;1.30;;
40489;SDS011;26196;52.302;10.572;2024-02-26T11:15:35;1.40;;;1.00;;
40489;SDS011;26196;52.302;10.572;2024-02-26T11:19:37;2.53;;;1.50;;
40489;SDS011;26196;52.302;10.572;2024-02-26T11:23:40;3.05;;;1.30;;
40489;SDS011;26196;52.302;10.572;2024-02-26T11:27:43;3.00;;;1.50;;
40489;SDS011;26196;52.302;10.572;2024-02-26T11:35:51;3.50;;;1.23;;
40489;SDS011;26196;52.302;10.572;2024-02-26T11:39:53;2.67;;;1.58;;
40489;SDS011;26196;52.302;10.572;2024-02-26T11:43:59;4.10;;;1.05;;
40489;SDS011;26196;52.302;10.572;2024-02-26T11:48:02;2.70;;;1.58;;
40489;SDS011;26196;52.302;10.572;2024-02-26T11:52:08;3.90;;;3.15;;
40489;SDS011;26196;52.302;10.572;2024-02-26T12:04:25;3.20;;;1.55;;
40489;SDS011;26196;52.302;10.572;2024-02-26T12:08:30;3.08;;;1.30;;
40489;SDS011;26196;52.302;10.572;2024-02-26T12:12:36;2.97;;;1.42;;
40489;SDS011;26196;52.302;10.572;2024-02-26T12:16:38;1.67;;;1.20;;
40489;SDS011;26196;52.302;10.572;2024-02-26T12:20:40;2.03;;;1.50;;
40489;SDS011;26196;52.302;10.572;2024-02-26T12:24:43;2.42;;;1.73;;
40489;SDS011;26196;52.302;10.572;2024-02-26T12:28:46;2.13;;;1.65;;
40489;SDS011;26196;52.302;10.572;2024-02-26T12:32:48;3.08;;;1.90;;
40489;SDS011;26196;52.302;10.572;2024-02-26T12:36:51;2.15;;;1.40;;
40489;SDS011;26196;52.302;10.572;2024-02-26T12:40:52;2.88;;;1.67;;
40489;SDS011;26196;52.302;10.572;2024-02-26T12:44:54;2.75;;;1.65;;
40489;SDS011;26196;52.302;10.572;2024-02-26T12:48:56;3.13;;;1.63;;
40489;SDS011;26196;52.302;10.572;2024-02-26T12:53:00;2.33;;;1.60;;
40489;SDS011;26196;52.302;10.572;2024-02-26T12:57:01;3.03;;;1.50;;
40489;SDS011;26196;52.302;10.572;2024-02-26T13:01:06;3.08;;;1.45;;
40489;SDS011;26196;52.302;10.572;2024-02-26T13:05:07;2.05;;;1.35;;
40489;SDS011;26196;52.302;10.572;2024-02-26T13:09:12;1.92;;;1.30;;
40489;SDS011;26196;52.302;10.572;2024-02-26T13:13:15;3.10;;;2.03;;
40489;SDS011;26196;52.302;10.572;2024-02-26T13:17:21;3.08;;;2.00;;
40489;SDS011;26196;52.302;10.572;2024-02-26T13:21:26;2.45;;;1.60;;
40489;SDS011;26196;52.302;10.572;2024-02-26T13:25:29;2.22;;;1.58;;
40489;SDS011;26196;52.302;10.572;2024-02-26T13:29:31;3.92;;;1.67;;
40489;SDS011;26196;52.302;10.572;2024-02-26T13:33:33;4.28;;;1.50;;
40489;SDS011;26196;52.302;10.572;2024-02-26T13:37:36;3.60;;;1.90;;
40489;SDS011;26196;52.302;10.572;2024-02-26T13:41:38;4.28;;;1.98;;
40489;SDS011;26196;52.302;10.572;2024-02-26T13:45:39;3.53;;;1.70;;
40489;SDS011;26196;52.302;10.572;2024-02-26T13:49:41;3.13;;;2.03;;
40489;SDS011;26196;52.302;10.572;2024-02-26T13:53:43;4.35;;;2.42;;
40489;SDS011;26196;52.302;10.572;2024-02-26T13:57:44;3.60;;;2.45;;
40489;SDS011;26196;52.302;10.572;2024-02-26T14:01:46;6.88;;;3.40;;
40489;SDS011;26196;52.302;10.572;2024-02-26T14:05:48;7.53;;;3.72;;
40489;SDS011;26196;52.302;10.572;2024-02-26T14:09:50;8.18;;;4.60;;
40489;SDS011;26196;52.302;10.572;2024-02-26T14:13:53;8.98;;;4.82;;
40489;SDS011;26196;52.302;10.572;2024-02-26T14:17:55;9.25;;;6.43;;
40489;SDS011;26196;52.302;10.572;2024-02-26T14:21:58;12.13;;;6.18;;
40489;SDS011;26196;52.302;10.572;2024-02-26T14:26:00;15.32;;;7.45;;
40489;SDS011;26196;52.302;10.572;2024-02-26T14:30:03;11.23;;;6.65;;
40489;SDS011;26196;52.302;10.572;2024-02-26T14:34:07;9.68;;;6.70;;
40489;SDS011;26196;52.302;10.572;2024-02-26T14:38:10;9.90;;;5.72;;
40489;SDS011;26196;52.302;10.572;2024-02-26T14:42:13;9.55;;;5.53;;
40489;SDS011;26196;52.302;10.572;2024-02-26T14:46:18;10.48;;;7.30;;
40489;SDS011;26196;52.302;10.572;2024-02-26T14:50:20;8.95;;;5.15;;
40489;SDS011;26196;52.302;10.572;2024-02-26T14:54:22;9.00;;;5.15;;
40489;SDS011;26196;52.302;10.572;2024-02-26T14:58:23;6.55;;;4.60;;
40489;SDS011;26196;52.302;10.572;2024-02-26T15:02:25;8.73;;;5.68;;
40489;SDS011;26196;52.302;10.572;2024-02-26T15:06:26;8.65;;;4.95;;
40489;SDS011;26196;52.302;10.572;2024-02-26T15:10:28;8.35;;;4.80;;
40489;SDS011;26196;52.302;10.572;2024-02-26T15:14:30;9.00;;;4.50;;
40489;SDS011;26196;52.302;10.572;2024-02-26T15:18:31;7.78;;;4.72;;
40489;SDS011;26196;52.302;10.572;2024-02-26T15:22:33;7.78;;;5.32;;
40489;SDS011;26196;52.302;10.572;2024-02-26T15:26:35;7.78;;;4.57;;
40489;SDS011;26196;52.302;10.572;2024-02-26T15:30:37;6.00;;;3.88;;
40489;SDS011;26196;52.302;10.572;2024-02-26T15:34:38;6.90;;;3.80;;
40489;SDS011;26196;52.302;10.572;2024-02-26T15:38:40;6.20;;;3.85;;
40489;SDS011;26196;52.302;10.572;2024-02-26T15:42:42;7.43;;;3.53;;
40489;SDS011;26196;52.302;10.572;2024-02-26T15:46:43;5.03;;;3.45;;
40489;SDS011;26196;52.302;10.572;2024-02-26T15:50:45;7.60;;;4.05;;
40489;SDS011;26196;52.302;10.572;2024-02-26T15:54:46;6.55;;;3.90;;
40489;SDS011;26196;52.302;10.572;2024-02-26T15:58:48;6.53;;;3.33;;
40489;SDS011;26196;52.302;10.572;2024-02-26T16:02:52;6.97;;;4.03;;
40489;SDS011;26196;52.302;10.572;2024-02-26T16:06:54;7.95;;;3.97;;
40489;SDS011;26196;52.302;10.572;2024-02-26T16:11:00;7.00;;;3.33;;
40489;SDS011;26196;52.302;10.572;2024-02-26T16:15:03;6.32;;;3.00;;
40489;SDS011;26196;52.302;10.572;2024-02-26T16:19:06;5.75;;;2.83;;
40489;SDS011;26196;52.302;10.572;2024-02-26T16:23:11;5.17;;;2.90;;
40489;SDS011;26196;52.302;10.572;2024-02-26T16:27:13;7.60;;;3.05;;
40489;SDS011;26196;52.302;10.572;2024-02-26T16:31:15;3.80;;;2.63;;
40489;SDS011;26196;52.302;10.572;2024-02-26T16:35:17;3.58;;;2.10;;
40489;SDS011;26196;52.302;10.572;2024-02-26T16:39:19;3.97;;;2.08;;
40489;SDS011;26196;52.302;10.572;2024-02-26T16:43:21;5.18;;;2.00;;
40489;SDS011;26196;52.302;10.572;2024-02-26T16:47:23;3.88;;;1.77;;
40489;SDS011;26196;52.302;10.572;2024-02-26T16:51:25;4.78;;;2.30;;
40489;SDS011;26196;52.302;10.572;2024-02-26T16:55:26;2.78;;;1.85;;
40489;SDS011;26196;52.302;10.572;2024-02-26T16:59:29;3.10;;;1.80;;
40489;SDS011;26196;52.302;10.572;2024-02-26T17:03:30;4.72;;;3.15;;
40489;SDS011;26196;52.302;10.572;2024-02-26T17:07:32;3.00;;;2.00;;
40489;SDS011;26196;52.302;10.572;2024-02-26T17:11:34;4.60;;;2.00;;
40489;SDS011;26196;52.302;10.572;2024-02-26T17:15:37;4.05;;;2.53;;
40489;SDS011;26196;52.302;10.572;2024-02-26T17:19:38;7.35;;;2.75;;
40489;SDS011;26196;52.302;10.572;2024-02-26T17:23:40;3.95;;;1.42;;
40489;SDS011;26196;52.302;10.572;2024-02-26T17:27:43;3.15;;;2.05;;
40489;SDS011;26196;52.302;10.572;2024-02-26T17:31:45;2.78;;;2.15;;
40489;SDS011;26196;52.302;10.572;2024-02-26T17:35:47;3.47;;;2.22;;
40489;SDS011;26196;52.302;10.572;2024-02-26T17:39:49;2.25;;;1.63;;
40489;SDS011;26196;52.302;10.572;2024-02-26T17:43:50;3.58;;;1.98;;
40489;SDS011;26196;52.302;10.572;2024-02-26T17:47:52;2.30;;;1.35;;
40489;SDS011;26196;52.302;10.572;2024-02-26T17:51:54;2.30;;;1.40;;
40489;SDS011;26196;52.302;10.572;2024-02-26T17:55:56;4.15;;;1.70;;
40489;SDS011;26196;52.302;10.572;2024-02-26T17:59:57;1.98;;;1.40;;
40489;SDS011;26196;52.302;10.572;2024-02-26T18:03:59;3.10;;;1.90;;
40489;SDS011;26196;52.302;10.572;2024-02-26T18:08:00;2.70;;;1.42;;
40489;SDS011;26196;52.302;10.572;2024-02-26T18:12:02;1.50;;;1.15;;
40489;SDS011;26196;52.302;10.572;2024-02-26T18:16:04;3.35;;;1.52;;
40489;SDS011;26196;52.302;10.572;2024-02-26T18:20:06;1.90;;;1.15;;
40489;SDS011;26196;52.302;10.572;2024-02-26T18:24:09;3.65;;;1.30;;
40489;SDS011;26196;52.302;10.572;2024-02-26T18:28:11;2.78;;;1.25;;
40489;SDS011;26196;52.302;10.572;2024-02-26T18:32:13;2.63;;;1.05;;
40489;SDS011;26196;52.302;10.572;2024-02-26T18:36:17;2.63;;;1.25;;
40489;SDS011;26196;52.302;10.572;2024-02-26T18:40:24;4.10;;;1.60;;
40489;SDS011;26196;52.302;10.572;2024-02-26T18:44:25;1.65;;;1.00;;
40489;SDS011;26196;52.302;10.572;2024-02-26T18:48:28;2.70;;;1.30;;
40489;SDS011;26196;52.302;10.572;2024-02-26T18:52:30;3.22;;;1.40;;
40489;SDS011;26196;52.302;10.572;2024-02-26T18:56:31;1.98;;;1.00;;
40489;SDS011;26196;52.302;10.572;2024-02-26T19:00:33;2.53;;;1.10;;
40489;SDS011;26196;52.302;10.572;2024-02-26T19:04:35;4.50;;;1.10;;
40489;SDS011;26196;52.302;10.572;2024-02-26T19:08:37;2.42;;;1.10;;
40489;SDS011;26196;52.302;10.572;2024-02-26T19:12:41;2.78;;;1.23;;
40489;SDS011;26196;52.302;10.572;2024-02-26T19:16:45;1.80;;;0.85;;
40489;SDS011;26196;52.302;10.572;2024-02-26T19:20:47;3.88;;;0.90;;
40489;SDS011;26196;52.302;10.572;2024-02-26T19:24:49;1.20;;;0.90;;
40489;SDS011;26196;52.302;10.572;2024-02-26T19:28:52;2.75;;;0.90;;
40489;SDS011;26196;52.302;10.572;2024-02-26T19:32:53;1.92;;;1.02;;
40489;SDS011;26196;52.302;10.572;2024-02-26T19:36:55;2.58;;;0.80;;
40489;SDS011;26196;52.302;10.572;2024-02-26T19:40:57;1.83;;;0.95;;
40489;SDS011;26196;52.302;10.572;2024-02-26T19:44:58;2.25;;;0.70;;
40489;SDS011;26196;52.302;10.572;2024-02-26T19:49:01;1.40;;;0.73;;
40489;SDS011;26196;52.302;10.572;2024-02-26T19:53:03;1.42;;;0.80;;
40489;SDS011;26196;52.302;10.572;2024-02-26T19:57:05;1.42;;;0.60;;
40489;SDS011;26196;52.302;10.572;2024-02-26T20:01:09;3.60;;;0.95;;
40489;SDS011;26196;52.302;10.572;2024-02-26T20:05:12;1.85;;;1.00;;
40489;SDS011;26196;52.302;10.572;2024-02-26T20:09:14;2.15;;;1.02;;
40489;SDS011;26196;52.302;10.572;2024-02-26T20:13:16;1.33;;;0.80;;
40489;SDS011;26196;52.302;10.572;2024-02-26T20:17:17;1.48;;;1.05;;
40489;SDS011;26196;52.302;10.572;2024-02-26T20:21:20;2.67;;;1.10;;
40489;SDS011;26196;52.302;10.572;2024-02-26T20:25:22;1.20;;;0.77;;
40489;SDS011;26196;52.302;10.572;2024-02-26T20:29:23;2.42;;;0.90;;
40489;SDS011;26196;52.302;10.572;2024-02-26T20:33:25;1.20;;;0.80;;
40489;SDS011;26196;52.302;10.572;2024-02-26T20:37:27;2.03;;;1.05;;
40489;SDS011;26196;52.302;10.572;2024-02-26T20:41:29;7.80;;;1.20;;
40489;SDS011;26196;52.302;10.572;2024-02-26T20:45:31;1.55;;;1.00;;
40489;SDS011;26196;52.302;10.572;2024-02-26T20:49:33;2.67;;;1.17;;
40489;SDS011;26196;52.302;10.572;2024-02-26T20:53:34;2.67;;;0.73;;
40489;SDS011;26196;52.302;10.572;2024-02-26T20:57:37;1.35;;;0.90;;
40489;SDS011;26196;52.302;10.572;2024-02-26T21:01:39;2.30;;;0.90;;
40489;SDS011;26196;52.302;10.572;2024-02-26T21:05:40;1.33;;;0.90;;
40489;SDS011;26196;52.302;10.572;2024-02-26T21:09:43;2.20;;;0.90;;
40489;SDS011;26196;52.302;10.572;2024-02-26T21:13:44;1.75;;;1.20;;
40489;SDS011;26196;52.302;10.572;2024-02-26T21:17:46;1.50;;;0.82;;
40489;SDS011;26196;52.302;10.572;2024-02-26T21:21:47;2.22;;;0.98;;
40489;SDS011;26196;52.302;10.572;2024-02-26T21:25:49;3.03;;;1.10;;
40489;SDS011;26196;52.302;10.572;2024-02-26T21:29:51;2.42;;;1.23;;
40489;SDS011;26196;52.302;10.572;2024-02-26T21:33:52;2.13;;;1.25;;
40489;SDS011;26196;52.302;10.572;2024-02-26T21:37:54;1.80;;;1.60;;
40489;SDS011;26196;52.302;10.572;2024-02-26T21:41:56;1.25;;;1.05;;
40489;SDS011;26196;52.302;10.572;2024-02-26T21:45:57;3.47;;;1.33;;
40489;SDS011;26196;52.302;10.572;2024-02-26T21:50:00;1.90;;;1.15;;
40489;SDS011;26196;52.302;10.572;2024-02-26T21:54:02;2.10;;;1.20;;
40489;SDS011;26196;52.302;10.572;2024-02-26T21:58:04;3.30;;;1.30;;
40489;SDS011;26196;52.302;10.572;2024-02-26T22:02:05;4.03;;;1.50;;
40489;SDS011;26196;52.302;10.572;2024-02-26T22:06:07;3.67;;;1.85;;
40489;SDS011;26196;52.302;10.572;2024-02-26T22:10:09;2.80;;;1.75;;
40489;SDS011;26196;52.302;10.572;2024-02-26T22:14:11;2.80;;;1.83;;
40489;SDS011;26196;52.302;10.572;2024-02-26T22:18:12;1.73;;;1.58;;
40489;SDS011;26196;52.302;10.572;2024-02-26T22:22:14;2.40;;;2.00;;
40489;SDS011;26196;52.302;10.572;2024-02-26T22:26:16;2.90;;;1.85;;
40489;SDS011;26196;52.302;10.572;2024-02-26T22:30:17;2.72;;;2.28;;
40489;SDS011;26196;52.302;10.572;2024-02-26T22:34:19;3.15;;;2.33;;
40489;SDS011;26196;52.302;10.572;2024-02-26T22:38:21;3.78;;;2.72;;
40489;SDS011;26196;52.302;10.572;2024-02-26T22:42:24;2.78;;;2.13;;
40489;SDS011;26196;52.302;10.572;2024-02-26T22:46:26;3.35;;;2.30;;
40489;SDS011;26196;52.302;10.572;2024-02-26T22:50:28;4.25;;;2.65;;
40489;SDS011;26196;52.302;10.572;2024-02-26T22:54:29;3.55;;;2.65;;
40489;SDS011;26196;52.302;10.572;2024-02-26T22:58:32;4.68;;;2.90;;
40489;SDS011;26196;52.302;10.572;2024-02-26T23:02:33;4.03;;;2.95;;
40489;SDS011;26196;52.302;10.572;2024-02-26T23:06:35;6.38;;;3.60;;
40489;SDS011;26196;52.302;10.572;2024-02-26T23:10:37;5.65;;;3.85;;
40489;SDS011;26196;52.302;10.572;2024-02-26T23:14:38;4.90;;;3.67;;
40489;SDS011;26196;52.302;10.572;2024-02-26T23:18:40;5.93;;;4.30;;
40489;SDS011;26196;52.302;10.572;2024-02-26T23:22:43;7.53;;;5.00;;
40489;SDS011;26196;52.302;10.572;2024-02-26T23:26:46;6.00;;;4.55;;
40489;SDS011;26196;52.302;10.572;2024-02-26T23:30:47;6.80;;;4.35;;
40489;SDS011;26196;52.302;10.572;2024-02-26T23:34:49;5.25;;;4.75;;
40489;SDS011;26196;52.302;10.572;2024-02-26T23:38:51;7.18;;;4.20;;
40489;SDS011;26196;52.302;10.572;2024-02-26T23:42:55;5.03;;;3.78;;
40489;SDS011;26196;52.302;10.572;2024-02-26T23:46:57;5.25;;;3.83;;
40489;SDS011;26196;52.302;10.572;2024-02-26T23:50:58;7.70;;;3.85;;
40489;SDS011;26196;52.302;10.572;2024-02-26T23:55:00;5.10;;;3.85;;
40489;SDS011;26196;52.302;10.572;2024-02-26T23:59:02;5.40;;;3.75;;
